Flight Track Log - Related Links

Times and Time Zones

All times are in EDT time to prevent confusion due to time zone crossing. See the QXE2130 flight status page for this flight to view local times or setup timezone preferences in your user account.

Time Position Orientation Groundspeed Altitude Reporting Facility
EDT Latitude Longitude Course Direction KTS MPH feet Rate Location/Type
12:14AM 46.0230 -122.6557 350° North  Level FlightAware Approximate
12:15AM 46.0961 -122.6692 352° North  Level FlightAware Approximate
12:16AM 46.1694 -122.6837 354° North  Level FlightAware Approximate
12:17AM 46.2430 -122.6942 354° North  Level FlightAware Approximate
12:18AM 46.3149 -122.7158 341° North  Level FlightAware Approximate
12:19AM 46.3887 -122.7199 358° North  Level FlightAware Approximate
12:20AM 46.4626 -122.7233 358° North  Level FlightAware Approximate
12:21AM 46.5365 -122.7266 358° North  Level FlightAware Approximate
12:22AM 46.6105 -122.7300 358° North  Level FlightAware Approximate
12:23AM 46.6844 -122.7333 North  Level FlightAware Approximate
12:24AM 46.7583 -122.7333 360° North  Level FlightAware Approximate
12:25AM 46.8195 -122.6852 42° Northeast  Level FlightAware Approximate
12:26AM 46.8776 -122.6188 42° Northeast  Level FlightAware Approximate
12:27AM 46.9342 -122.5496 19° North  Level FlightAware Approximate
12:28AM 47.0043 -122.5156 10° North  Level FlightAware Approximate
12:29AM 47.0768 -122.4949 19° North  Level FlightAware Approximate
12:30AM 47.1490 -122.4735 North  Level FlightAware Approximate
12:31AM 47.2226 -122.4659 North  Level FlightAware Approximate
12:32AM 47.2963 -122.4567 North  Level FlightAware Approximate
12:33AM 47.3700 -122.4500 North  Level FlightAware Approximate
12:34AM 47.4440 -122.4500 North  Level FlightAware Approximate
12:35AM 47.4938 -122.4251 110° East  Level FlightAware Approximate
12:36AM 47.4542 -122.3348 132° Southeast  Level FlightAware Approximate
12:37AM 47.4499 -122.3118 132° Southeast  Level Estimated
12:38AM 47.4499 -122.3118 132° Southeast  Level Estimated
12:39AM 47.4499 -122.3118 132° Southeast  Level Estimated
12:40AM 47.4499 -122.3118 132° Southeast  Level Estimated
12:41AM 47.4499 -122.3118 176° South  Level Estimated
12:42AM 47.4499 -122.3118 176° South  Level Estimated
12:43AM 47.4499 -122.3118 176° South  Level Estimated
12:44AM 47.4499 -122.3118 176° South  Level Estimated
12:45AM 47.4499 -122.3118 176° South  Level Estimated
12:46AM 47.4499 -122.3118 176° South  Level Estimated
12:47AM 47.4499 -122.3118 176° South  Level Estimated

Login

Don't have an account? Register now (free) for customized features, flight alerts, and more!